sensor_id;sensor_type;location;lat;lon;timestamp;pressure;altitude;pressure_sealevel;temperature;humidity
18988;BME280;5494;51.796;10.952;2023-04-26T00:01:19;98961.72;;;4.34;100.00
18988;BME280;5494;51.796;10.952;2023-04-26T00:03:47;98957.16;;;4.44;99.20
18988;BME280;5494;51.796;10.952;2023-04-26T00:06:16;98967.47;;;4.44;98.72
18988;BME280;5494;51.796;10.952;2023-04-26T00:08:45;98960.19;;;4.27;98.63
18988;BME280;5494;51.796;10.952;2023-04-26T00:11:13;98958.47;;;4.27;98.95
18988;BME280;5494;51.796;10.952;2023-04-26T00:13:41;98966.88;;;4.34;96.75
18988;BME280;5494;51.796;10.952;2023-04-26T00:16:09;98968.06;;;4.21;97.82
18988;BME280;5494;51.796;10.952;2023-04-26T00:18:40;98967.16;;;4.22;96.88
18988;BME280;5494;51.796;10.952;2023-04-26T00:21:08;98968.00;;;4.22;97.23
18988;BME280;5494;51.796;10.952;2023-04-26T00:23:37;98970.16;;;4.07;98.37
18988;BME280;5494;51.796;10.952;2023-04-26T00:26:06;98967.41;;;4.13;98.47
18988;BME280;5494;51.796;10.952;2023-04-26T00:28:34;98970.19;;;4.05;98.51
18988;BME280;5494;51.796;10.952;2023-04-26T00:31:02;98969.28;;;4.08;98.81
18988;BME280;5494;51.796;10.952;2023-04-26T00:33:30;98967.66;;;4.02;99.74
18988;BME280;5494;51.796;10.952;2023-04-26T00:35:58;98963.66;;;3.92;100.00
18988;BME280;5494;51.796;10.952;2023-04-26T00:38:26;98971.22;;;3.96;100.00
18988;BME280;5494;51.796;10.952;2023-04-26T00:40:54;98970.31;;;4.01;100.00
18988;BME280;5494;51.796;10.952;2023-04-26T00:43:23;98960.88;;;4.00;100.00
18988;BME280;5494;51.796;10.952;2023-04-26T00:45:52;98967.59;;;4.05;99.85
18988;BME280;5494;51.796;10.952;2023-04-26T00:48:20;98973.00;;;3.94;100.00
18988;BME280;5494;51.796;10.952;2023-04-26T00:50:48;98963.63;;;3.93;100.00
18988;BME280;5494;51.796;10.952;2023-04-26T00:53:17;98966.97;;;3.95;100.00
18988;BME280;5494;51.796;10.952;2023-04-26T00:55:46;98967.72;;;4.01;99.85
18988;BME280;5494;51.796;10.952;2023-04-26T00:58:17;98970.69;;;3.84;100.00
18988;BME280;5494;51.796;10.952;2023-04-26T01:00:46;98964.66;;;3.86;100.00
18988;BME280;5494;51.796;10.952;2023-04-26T01:03:16;98974.09;;;3.86;100.00
18988;BME280;5494;51.796;10.952;2023-04-26T01:05:45;98969.88;;;3.82;100.00
18988;BME280;5494;51.796;10.952;2023-04-26T01:08:13;98973.28;;;3.82;100.00
18988;BME280;5494;51.796;10.952;2023-04-26T01:10:43;98975.03;;;3.80;100.00
18988;BME280;5494;51.796;10.952;2023-04-26T01:13:12;98974.31;;;3.75;100.00
18988;BME280;5494;51.796;10.952;2023-04-26T01:15:43;98974.13;;;3.83;100.00
18988;BME280;5494;51.796;10.952;2023-04-26T01:18:14;98976.00;;;3.76;99.44
18988;BME280;5494;51.796;10.952;2023-04-26T01:20:42;98974.59;;;3.65;99.69
18988;BME280;5494;51.796;10.952;2023-04-26T01:23:11;98971.31;;;3.58;99.97
18988;BME280;5494;51.796;10.952;2023-04-26T01:25:39;98980.50;;;3.67;99.71
18988;BME280;5494;51.796;10.952;2023-04-26T01:28:07;98975.31;;;3.70;98.81
18988;BME280;5494;51.796;10.952;2023-04-26T01:30:35;98977.72;;;3.76;98.28
18988;BME280;5494;51.796;10.952;2023-04-26T01:33:03;98986.47;;;3.69;97.10
18988;BME280;5494;51.796;10.952;2023-04-26T01:35:32;98983.81;;;3.73;96.99
18988;BME280;5494;51.796;10.952;2023-04-26T01:38:01;98982.16;;;3.71;96.19
18988;BME280;5494;51.796;10.952;2023-04-26T01:40:31;98974.59;;;3.63;96.51
18988;BME280;5494;51.796;10.952;2023-04-26T01:42:59;98983.97;;;3.66;96.11
18988;BME280;5494;51.796;10.952;2023-04-26T01:45:28;98993.44;;;3.64;96.74
18988;BME280;5494;51.796;10.952;2023-04-26T01:48:16;98982.38;;;3.60;96.65
18988;BME280;5494;51.796;10.952;2023-04-26T01:50:44;98981.59;;;3.58;97.63
18988;BME280;5494;51.796;10.952;2023-04-26T01:53:12;98980.75;;;3.58;97.50
18988;BME280;5494;51.796;10.952;2023-04-26T01:55:41;98979.88;;;3.59;97.35
18988;BME280;5494;51.796;10.952;2023-04-26T01:58:09;98980.06;;;3.49;97.38
18988;BME280;5494;51.796;10.952;2023-04-26T02:00:37;98979.16;;;3.52;97.01
18988;BME280;5494;51.796;10.952;2023-04-26T02:03:05;98985.06;;;3.55;97.07
18988;BME280;5494;51.796;10.952;2023-04-26T02:05:33;98980.97;;;3.47;97.54
18988;BME280;5494;51.796;10.952;2023-04-26T02:08:04;98973.88;;;3.58;97.05
18988;BME280;5494;51.796;10.952;2023-04-26T02:10:32;98975.59;;;3.58;96.57
18988;BME280;5494;51.796;10.952;2023-04-26T02:13:02;98976.03;;;3.75;96.20
18988;BME280;5494;51.796;10.952;2023-04-26T02:15:29;98977.22;;;3.62;96.58
18988;BME280;5494;51.796;10.952;2023-04-26T02:17:57;98979.91;;;3.55;97.50
18988;BME280;5494;51.796;10.952;2023-04-26T02:20:25;98977.75;;;3.74;97.50
18988;BME280;5494;51.796;10.952;2023-04-26T02:22:54;98978.16;;;3.58;97.35
18988;BME280;5494;51.796;10.952;2023-04-26T02:25:22;98980.00;;;3.52;98.12
18988;BME280;5494;51.796;10.952;2023-04-26T02:27:50;98982.50;;;3.54;98.91
18988;BME280;5494;51.796;10.952;2023-04-26T02:30:21;98978.16;;;3.58;99.09
18988;BME280;5494;51.796;10.952;2023-04-26T02:32:52;98987.56;;;3.59;98.94
18988;BME280;5494;51.796;10.952;2023-04-26T02:35:20;98986.72;;;3.58;98.60
18988;BME280;5494;51.796;10.952;2023-04-26T02:37:48;98983.38;;;3.53;99.21
18988;BME280;5494;51.796;10.952;2023-04-26T02:40:18;98991.09;;;3.53;98.92
18988;BME280;5494;51.796;10.952;2023-04-26T02:42:47;98989.44;;;3.52;98.71
18988;BME280;5494;51.796;10.952;2023-04-26T02:45:16;98986.91;;;3.50;98.76
18988;BME280;5494;51.796;10.952;2023-04-26T02:47:45;98987.66;;;3.54;99.00
18988;BME280;5494;51.796;10.952;2023-04-26T02:50:14;98985.03;;;3.57;98.35
18988;BME280;5494;51.796;10.952;2023-04-26T02:52:42;98980.88;;;3.51;99.33
18988;BME280;5494;51.796;10.952;2023-04-26T02:55:10;98978.38;;;3.47;99.15
18988;BME280;5494;51.796;10.952;2023-04-26T02:57:37;98989.63;;;3.43;99.60
18988;BME280;5494;51.796;10.952;2023-04-26T03:00:08;98985.22;;;3.48;99.93
18988;BME280;5494;51.796;10.952;2023-04-26T03:02:36;98983.59;;;3.45;99.51
18988;BME280;5494;51.796;10.952;2023-04-26T03:05:07;98975.03;;;3.45;100.00
18988;BME280;5494;51.796;10.952;2023-04-26T03:07:35;98981.03;;;3.44;99.12
18988;BME280;5494;51.796;10.952;2023-04-26T03:10:05;98977.50;;;3.48;98.89
18988;BME280;5494;51.796;10.952;2023-04-26T03:12:34;98982.66;;;3.48;99.14
18988;BME280;5494;51.796;10.952;2023-04-26T03:15:03;98981.22;;;3.36;98.81
18988;BME280;5494;51.796;10.952;2023-04-26T03:17:32;98989.03;;;3.32;98.92
18988;BME280;5494;51.796;10.952;2023-04-26T03:20:00;98982.34;;;3.25;99.25
18988;BME280;5494;51.796;10.952;2023-04-26T03:22:31;98985.63;;;3.30;99.14
18988;BME280;5494;51.796;10.952;2023-04-26T03:25:00;98988.06;;;3.36;98.67
18988;BME280;5494;51.796;10.952;2023-04-26T03:27:29;98984.63;;;3.37;98.42
18988;BME280;5494;51.796;10.952;2023-04-26T03:29:59;98987.34;;;3.29;98.04
18988;BME280;5494;51.796;10.952;2023-04-26T03:32:28;98984.84;;;3.26;99.16
18988;BME280;5494;51.796;10.952;2023-04-26T03:34:56;98983.16;;;3.25;99.17
18988;BME280;5494;51.796;10.952;2023-04-26T03:37:24;98986.56;;;3.26;99.06
18988;BME280;5494;51.796;10.952;2023-04-26T03:39:59;98978.84;;;3.26;98.71
18988;BME280;5494;51.796;10.952;2023-04-26T03:42:28;98988.25;;;3.27;98.90
18988;BME280;5494;51.796;10.952;2023-04-26T03:44:56;98979.66;;;3.29;98.00
18988;BME280;5494;51.796;10.952;2023-04-26T03:47:24;98984.75;;;3.31;98.63
18988;BME280;5494;51.796;10.952;2023-04-26T03:49:52;98979.53;;;3.34;97.47
18988;BME280;5494;51.796;10.952;2023-04-26T03:52:20;98981.38;;;3.29;97.40
18988;BME280;5494;51.796;10.952;2023-04-26T03:54:48;98978.75;;;3.32;97.78
18988;BME280;5494;51.796;10.952;2023-04-26T03:57:17;98982.25;;;3.28;97.84
18988;BME280;5494;51.796;10.952;2023-04-26T03:59:45;98986.38;;;3.35;97.70
18988;BME280;5494;51.796;10.952;2023-04-26T04:02:15;98990.63;;;3.36;96.85
18988;BME280;5494;51.796;10.952;2023-04-26T04:04:43;98984.81;;;3.28;96.91
18988;BME280;5494;51.796;10.952;2023-04-26T04:07:11;98989.03;;;3.32;96.30
18988;BME280;5494;51.796;10.952;2023-04-26T04:09:39;98998.34;;;3.36;96.25
18988;BME280;5494;51.796;10.952;2023-04-26T04:12:07;98995.72;;;3.39;95.79
18988;BME280;5494;51.796;10.952;2023-04-26T04:14:36;98999.91;;;3.43;96.21
18988;BME280;5494;51.796;10.952;2023-04-26T04:17:05;98994.63;;;3.49;93.88
18988;BME280;5494;51.796;10.952;2023-04-26T04:19:35;98992.66;;;3.60;92.94
18988;BME280;5494;51.796;10.952;2023-04-26T04:22:04;98996.56;;;3.76;92.64
18988;BME280;5494;51.796;10.952;2023-04-26T04:24:33;98991.25;;;3.84;91.38
18988;BME280;5494;51.796;10.952;2023-04-26T04:27:01;98992.63;;;3.99;90.07
18988;BME280;5494;51.796;10.952;2023-04-26T04:29:29;98990.09;;;3.97;89.46
18988;BME280;5494;51.796;10.952;2023-04-26T04:31:58;98992.19;;;4.15;89.01
18988;BME280;5494;51.796;10.952;2023-04-26T04:34:26;98994.44;;;4.29;87.63
18988;BME280;5494;51.796;10.952;2023-04-26T04:36:54;98992.91;;;4.56;85.95
18988;BME280;5494;51.796;10.952;2023-04-26T04:39:23;99001.00;;;4.73;83.83
18988;BME280;5494;51.796;10.952;2023-04-26T04:41:51;98996.94;;;4.97;82.78
18988;BME280;5494;51.796;10.952;2023-04-26T04:44:20;98995.25;;;5.25;80.86
18988;BME280;5494;51.796;10.952;2023-04-26T04:46:51;98994.38;;;5.54;79.10
18988;BME280;5494;51.796;10.952;2023-04-26T04:49:20;98992.78;;;5.78;78.86
18988;BME280;5494;51.796;10.952;2023-04-26T04:51:51;98994.75;;;6.24;75.64
18988;BME280;5494;51.796;10.952;2023-04-26T04:54:19;98997.50;;;6.19;74.10
18988;BME280;5494;51.796;10.952;2023-04-26T04:56:47;99013.13;;;6.41;72.43
18988;BME280;5494;51.796;10.952;2023-04-26T04:59:15;99010.28;;;6.49;72.53
18988;BME280;5494;51.796;10.952;2023-04-26T05:01:44;98999.88;;;7.00;70.60
18988;BME280;5494;51.796;10.952;2023-04-26T05:04:14;99011.47;;;7.36;67.21
18988;BME280;5494;51.796;10.952;2023-04-26T05:06:44;99007.03;;;8.49;63.22
18988;BME280;5494;51.796;10.952;2023-04-26T05:09:13;99005.28;;;8.69;59.91
18988;BME280;5494;51.796;10.952;2023-04-26T05:11:41;99010.63;;;8.85;59.65
18988;BME280;5494;51.796;10.952;2023-04-26T05:14:10;99005.50;;;9.04;57.57
18988;BME280;5494;51.796;10.952;2023-04-26T05:16:38;99005.84;;;8.96;57.73
18988;BME280;5494;51.796;10.952;2023-04-26T05:19:07;99015.72;;;9.07;57.45
18988;BME280;5494;51.796;10.952;2023-04-26T05:21:36;99017.81;;;9.38;56.17
18988;BME280;5494;51.796;10.952;2023-04-26T05:24:06;99007.41;;;9.75;54.99
18988;BME280;5494;51.796;10.952;2023-04-26T05:26:35;99007.41;;;9.57;55.12
18988;BME280;5494;51.796;10.952;2023-04-26T05:29:15;99002.72;;;10.19;53.89
18988;BME280;5494;51.796;10.952;2023-04-26T05:31:52;99008.03;;;11.02;50.67
18988;BME280;5494;51.796;10.952;2023-04-26T05:34:39;99018.41;;;10.52;50.17
18988;BME280;5494;51.796;10.952;2023-04-26T05:37:11;99011.69;;;10.48;51.09
18988;BME280;5494;51.796;10.952;2023-04-26T05:39:40;99018.53;;;10.32;52.10
18988;BME280;5494;51.796;10.952;2023-04-26T05:42:08;99007.13;;;10.86;50.47
18988;BME280;5494;51.796;10.952;2023-04-26T05:44:37;99009.59;;;10.89;50.04
18988;BME280;5494;51.796;10.952;2023-04-26T05:47:05;99018.97;;;11.09;49.20
18988;BME280;5494;51.796;10.952;2023-04-26T05:49:33;99012.25;;;10.88;49.98
18988;BME280;5494;51.796;10.952;2023-04-26T05:52:02;99023.09;;;11.13;48.45
18988;BME280;5494;51.796;10.952;2023-04-26T05:54:30;99017.53;;;11.52;47.67
18988;BME280;5494;51.796;10.952;2023-04-26T05:56:59;99014.81;;;11.38;47.75
18988;BME280;5494;51.796;10.952;2023-04-26T05:59:28;99012.75;;;11.60;47.93
18988;BME280;5494;51.796;10.952;2023-04-26T06:01:58;99015.78;;;12.00;46.79
18988;BME280;5494;51.796;10.952;2023-04-26T06:04:27;99017.66;;;12.43;44.72
18988;BME280;5494;51.796;10.952;2023-04-26T06:07:09;99014.00;;;12.76;44.82
18988;BME280;5494;51.796;10.952;2023-04-26T06:09:38;99018.81;;;12.23;44.39
18988;BME280;5494;51.796;10.952;2023-04-26T06:12:07;99026.69;;;11.59;46.00
18988;BME280;5494;51.796;10.952;2023-04-26T06:14:39;99015.53;;;12.04;45.59
18988;BME280;5494;51.796;10.952;2023-04-26T06:17:12;99017.19;;;12.21;45.36
18988;BME280;5494;51.796;10.952;2023-04-26T06:19:41;99023.31;;;11.57;46.80
18988;BME280;5494;51.796;10.952;2023-04-26T06:22:09;99027.97;;;10.69;48.27
18988;BME280;5494;51.796;10.952;2023-04-26T06:24:38;99026.88;;;10.90;48.82
18988;BME280;5494;51.796;10.952;2023-04-26T06:27:08;99030.84;;;10.97;48.82
18988;BME280;5494;51.796;10.952;2023-04-26T06:29:38;99028.88;;;11.51;47.07
18988;BME280;5494;51.796;10.952;2023-04-26T06:32:07;99030.91;;;11.29;46.98
18988;BME280;5494;51.796;10.952;2023-04-26T06:34:35;99035.06;;;10.48;49.29
18988;BME280;5494;51.796;10.952;2023-04-26T06:37:04;99033.47;;;10.29;50.19
18988;BME280;5494;51.796;10.952;2023-04-26T06:39:34;99029.78;;;10.67;50.49
18988;BME280;5494;51.796;10.952;2023-04-26T06:42:04;99033.31;;;11.33;49.04
18988;BME280;5494;51.796;10.952;2023-04-26T06:44:52;99025.28;;;11.85;46.17
18988;BME280;5494;51.796;10.952;2023-04-26T06:47:20;99019.66;;;11.93;44.06
18988;BME280;5494;51.796;10.952;2023-04-26T06:49:48;99022.13;;;12.26;43.38
18988;BME280;5494;51.796;10.952;2023-04-26T06:52:16;99026.97;;;12.47;42.71
18988;BME280;5494;51.796;10.952;2023-04-26T06:54:46;99028.22;;;12.56;42.49
18988;BME280;5494;51.796;10.952;2023-04-26T06:57:23;99025.09;;;12.19;43.86
18988;BME280;5494;51.796;10.952;2023-04-26T06:59:53;99025.81;;;12.67;43.89
18988;BME280;5494;51.796;10.952;2023-04-26T07:02:21;99027.19;;;12.58;43.93
18988;BME280;5494;51.796;10.952;2023-04-26T07:04:50;99024.28;;;12.79;43.11
18988;BME280;5494;51.796;10.952;2023-04-26T07:07:19;99032.34;;;11.99;42.79
18988;BME280;5494;51.796;10.952;2023-04-26T07:09:47;99038.06;;;11.74;42.46
18988;BME280;5494;51.796;10.952;2023-04-26T07:12:15;99042.03;;;11.48;42.88
18988;BME280;5494;51.796;10.952;2023-04-26T07:14:44;99029.38;;;11.09;43.80
18988;BME280;5494;51.796;10.952;2023-04-26T07:17:13;99042.88;;;10.83;44.84
18988;BME280;5494;51.796;10.952;2023-04-26T07:19:42;99044.88;;;10.78;45.26
18988;BME280;5494;51.796;10.952;2023-04-26T07:22:10;99054.56;;;10.91;45.68
18988;BME280;5494;51.796;10.952;2023-04-26T07:24:39;99051.28;;;10.71;46.80
18988;BME280;5494;51.796;10.952;2023-04-26T07:27:07;99060.22;;;10.65;47.04
18988;BME280;5494;51.796;10.952;2023-04-26T07:29:34;99054.22;;;10.64;47.29
18988;BME280;5494;51.796;10.952;2023-04-26T07:32:03;99064.09;;;10.22;47.21
18988;BME280;5494;51.796;10.952;2023-04-26T07:34:32;99070.75;;;9.90;47.52
18988;BME280;5494;51.796;10.952;2023-04-26T07:37:01;99065.34;;;9.38;49.06
18988;BME280;5494;51.796;10.952;2023-04-26T07:39:28;99070.97;;;9.85;49.27
18988;BME280;5494;51.796;10.952;2023-04-26T07:41:56;99061.84;;;10.85;47.53
18988;BME280;5494;51.796;10.952;2023-04-26T07:44:24;99062.94;;;11.95;45.90
18988;BME280;5494;51.796;10.952;2023-04-26T07:46:52;99074.34;;;12.40;42.90
18988;BME280;5494;51.796;10.952;2023-04-26T07:49:20;99068.41;;;12.22;42.39
18988;BME280;5494;51.796;10.952;2023-04-26T07:51:50;99067.09;;;11.66;42.94
18988;BME280;5494;51.796;10.952;2023-04-26T07:54:18;99066.91;;;11.69;44.15
18988;BME280;5494;51.796;10.952;2023-04-26T07:56:46;99058.53;;;11.64;42.70
18988;BME280;5494;51.796;10.952;2023-04-26T07:59:14;99063.19;;;12.22;42.18
18988;BME280;5494;51.796;10.952;2023-04-26T08:01:42;99060.16;;;12.89;40.59
18988;BME280;5494;51.796;10.952;2023-04-26T08:04:10;99060.00;;;12.62;40.64
18988;BME280;5494;51.796;10.952;2023-04-26T08:06:38;99056.72;;;11.98;41.45
18988;BME280;5494;51.796;10.952;2023-04-26T08:09:11;99063.19;;;11.09;41.64
18988;BME280;5494;51.796;10.952;2023-04-26T08:11:39;99065.66;;;10.60;42.85
18988;BME280;5494;51.796;10.952;2023-04-26T08:14:07;99078.84;;;10.21;43.71
18988;BME280;5494;51.796;10.952;2023-04-26T08:16:36;99077.06;;;10.22;43.57
18988;BME280;5494;51.796;10.952;2023-04-26T08:19:04;99063.56;;;11.01;43.19
18988;BME280;5494;51.796;10.952;2023-04-26T08:21:32;99056.56;;;11.85;41.46
18988;BME280;5494;51.796;10.952;2023-04-26T08:24:03;99068.47;;;12.20;40.48
18988;BME280;5494;51.796;10.952;2023-04-26T08:26:33;99069.31;;;11.90;41.53
18988;BME280;5494;51.796;10.952;2023-04-26T08:29:01;99056.03;;;11.78;42.68
18988;BME280;5494;51.796;10.952;2023-04-26T08:31:29;99059.50;;;11.46;42.50
18988;BME280;5494;51.796;10.952;2023-04-26T08:33:57;99064.59;;;10.82;43.88
18988;BME280;5494;51.796;10.952;2023-04-26T08:36:26;99074.06;;;10.48;44.95
18988;BME280;5494;51.796;10.952;2023-04-26T08:38:54;99067.09;;;10.66;44.88
18988;BME280;5494;51.796;10.952;2023-04-26T08:41:24;99072.81;;;11.07;44.70
18988;BME280;5494;51.796;10.952;2023-04-26T08:43:55;99068.47;;;11.07;44.75
18988;BME280;5494;51.796;10.952;2023-04-26T08:46:31;99057.59;;;11.17;42.57
18988;BME280;5494;51.796;10.952;2023-04-26T08:49:16;99068.63;;;10.87;43.45
18988;BME280;5494;51.796;10.952;2023-04-26T08:51:54;99071.38;;;10.50;43.56
18988;BME280;5494;51.796;10.952;2023-04-26T08:54:24;99065.00;;;11.24;43.10
18988;BME280;5494;51.796;10.952;2023-04-26T08:56:54;99056.97;;;12.09;41.05
18988;BME280;5494;51.796;10.952;2023-04-26T08:59:28;99055.09;;;12.42;40.93
18988;BME280;5494;51.796;10.952;2023-04-26T09:01:57;99046.19;;;12.60;40.31
18988;BME280;5494;51.796;10.952;2023-04-26T09:04:26;99053.06;;;12.77;40.13
18988;BME280;5494;51.796;10.952;2023-04-26T09:07:00;99054.91;;;13.62;38.81
18988;BME280;5494;51.796;10.952;2023-04-26T09:09:34;99055.25;;;14.11;35.94
18988;BME280;5494;51.796;10.952;2023-04-26T09:12:04;99054.47;;;13.41;35.78
18988;BME280;5494;51.796;10.952;2023-04-26T09:14:34;99054.81;;;12.77;35.26
18988;BME280;5494;51.796;10.952;2023-04-26T09:17:02;99062.19;;;12.09;36.15
18988;BME280;5494;51.796;10.952;2023-04-26T09:19:35;99063.47;;;12.02;37.25
18988;BME280;5494;51.796;10.952;2023-04-26T09:22:04;99059.94;;;11.54;37.15
18988;BME280;5494;51.796;10.952;2023-04-26T09:24:46;99064.03;;;11.10;38.85
18988;BME280;5494;51.796;10.952;2023-04-26T09:27:16;99065.50;;;11.64;38.41
18988;BME280;5494;51.796;10.952;2023-04-26T09:30:02;99058.50;;;12.73;37.67
18988;BME280;5494;51.796;10.952;2023-04-26T09:32:50;99059.59;;;12.84;36.41
18988;BME280;5494;51.796;10.952;2023-04-26T09:35:33;99060.94;;;13.06;35.33
18988;BME280;5494;51.796;10.952;2023-04-26T09:38:03;99055.00;;;12.88;37.29
18988;BME280;5494;51.796;10.952;2023-04-26T09:40:40;99066.47;;;13.58;35.96
18988;BME280;5494;51.796;10.952;2023-04-26T09:43:10;99060.16;;;13.48;35.23
18988;BME280;5494;51.796;10.952;2023-04-26T09:45:46;99071.91;;;12.67;36.22
18988;BME280;5494;51.796;10.952;2023-04-26T09:48:18;99075.69;;;11.68;37.87
18988;BME280;5494;51.796;10.952;2023-04-26T09:50:51;99079.06;;;11.37;39.53
18988;BME280;5494;51.796;10.952;2023-04-26T09:53:31;99084.19;;;11.22;41.08
18988;BME280;5494;51.796;10.952;2023-04-26T09:56:09;99079.69;;;11.25;39.80
18988;BME280;5494;51.796;10.952;2023-04-26T09:58:55;99081.91;;;11.49;39.37
18988;BME280;5494;51.796;10.952;2023-04-26T10:01:27;99086.47;;;11.94;39.29
18988;BME280;5494;51.796;10.952;2023-04-26T10:03:58;99076.56;;;12.00;40.03
18988;BME280;5494;51.796;10.952;2023-04-26T10:06:28;99076.28;;;12.05;40.40
18988;BME280;5494;51.796;10.952;2023-04-26T10:09:00;99076.25;;;12.82;38.39
18988;BME280;5494;51.796;10.952;2023-04-26T10:11:33;99077.69;;;13.01;37.45
18988;BME280;5494;51.796;10.952;2023-04-26T10:14:01;99085.81;;;13.11;36.83
18988;BME280;5494;51.796;10.952;2023-04-26T10:16:31;99084.81;;;12.54;37.50
18988;BME280;5494;51.796;10.952;2023-04-26T10:19:00;99083.50;;;11.68;38.09
18988;BME280;5494;51.796;10.952;2023-04-26T10:21:33;99087.25;;;11.63;39.10
18988;BME280;5494;51.796;10.952;2023-04-26T10:24:05;99090.69;;;11.63;39.38
18988;BME280;5494;51.796;10.952;2023-04-26T10:26:48;99085.28;;;11.99;39.51
18988;BME280;5494;51.796;10.952;2023-04-26T10:29:18;99085.31;;;12.15;39.62
18988;BME280;5494;51.796;10.952;2023-04-26T10:32:09;99088.66;;;11.86;39.31
18988;BME280;5494;51.796;10.952;2023-04-26T10:34:42;99087.56;;;11.90;39.42
18988;BME280;5494;51.796;10.952;2023-04-26T10:37:12;99087.31;;;11.78;39.64
18988;BME280;5494;51.796;10.952;2023-04-26T10:39:42;99078.72;;;11.76;39.25
18988;BME280;5494;51.796;10.952;2023-04-26T10:42:21;99073.03;;;11.86;39.38
18988;BME280;5494;51.796;10.952;2023-04-26T10:44:52;99068.22;;;12.25;38.59
18988;BME280;5494;51.796;10.952;2023-04-26T10:47:30;99075.59;;;12.48;38.11
18988;BME280;5494;51.796;10.952;2023-04-26T10:50:05;99075.66;;;13.07;37.15
18988;BME280;5494;51.796;10.952;2023-04-26T10:52:34;99067.38;;;13.14;36.10
18988;BME280;5494;51.796;10.952;2023-04-26T10:55:04;99058.09;;;13.24;34.96
18988;BME280;5494;51.796;10.952;2023-04-26T10:57:48;99070.63;;;12.74;35.78
18988;BME280;5494;51.796;10.952;2023-04-26T11:00:31;99063.94;;;13.28;35.70
18988;BME280;5494;51.796;10.952;2023-04-26T11:03:05;99071.25;;;13.07;35.51
18988;BME280;5494;51.796;10.952;2023-04-26T11:05:46;99071.16;;;12.94;37.91
18988;BME280;5494;51.796;10.952;2023-04-26T11:08:17;99066.38;;;12.87;38.65
18988;BME280;5494;51.796;10.952;2023-04-26T11:10:52;99071.06;;;12.66;39.05
18988;BME280;5494;51.796;10.952;2023-04-26T11:13:23;99076.22;;;11.91;39.73
18988;BME280;5494;51.796;10.952;2023-04-26T11:15:59;99071.69;;;11.94;40.41
18988;BME280;5494;51.796;10.952;2023-04-26T11:18:32;99069.25;;;11.91;40.30
18988;BME280;5494;51.796;10.952;2023-04-26T11:21:00;99074.34;;;11.77;41.14
18988;BME280;5494;51.796;10.952;2023-04-26T11:23:29;99074.31;;;11.61;41.54
18988;BME280;5494;51.796;10.952;2023-04-26T11:25:58;99076.63;;;11.50;42.01
18988;BME280;5494;51.796;10.952;2023-04-26T11:28:29;99074.81;;;11.52;42.52
18988;BME280;5494;51.796;10.952;2023-04-26T11:31:00;99077.56;;;11.49;42.74
18988;BME280;5494;51.796;10.952;2023-04-26T11:33:31;99075.13;;;11.46;42.93
18988;BME280;5494;51.796;10.952;2023-04-26T11:36:00;99070.38;;;11.70;41.25
18988;BME280;5494;51.796;10.952;2023-04-26T11:38:28;99063.88;;;11.78;40.40
18988;BME280;5494;51.796;10.952;2023-04-26T11:40:58;99054.22;;;11.80;40.44
18988;BME280;5494;51.796;10.952;2023-04-26T11:43:34;99056.91;;;11.95;39.25
18988;BME280;5494;51.796;10.952;2023-04-26T11:46:04;99060.88;;;11.69;38.51
18988;BME280;5494;51.796;10.952;2023-04-26T11:48:35;99058.75;;;11.93;37.62
18988;BME280;5494;51.796;10.952;2023-04-26T11:51:05;99057.97;;;11.91;37.90
18988;BME280;5494;51.796;10.952;2023-04-26T11:53:36;99055.59;;;12.17;37.15
18988;BME280;5494;51.796;10.952;2023-04-26T11:56:12;99055.53;;;12.19;36.12
18988;BME280;5494;51.796;10.952;2023-04-26T11:58:44;99059.88;;;12.34;36.27
18988;BME280;5494;51.796;10.952;2023-04-26T12:01:20;99057.16;;;12.51;36.26
18988;BME280;5494;51.796;10.952;2023-04-26T12:03:52;99055.13;;;12.56;35.88
18988;BME280;5494;51.796;10.952;2023-04-26T12:06:29;99067.69;;;12.50;36.44
18988;BME280;5494;51.796;10.952;2023-04-26T12:09:01;99057.31;;;12.64;36.30
18988;BME280;5494;51.796;10.952;2023-04-26T12:11:31;99057.19;;;12.66;36.25
18988;BME280;5494;51.796;10.952;2023-04-26T12:13:59;99059.00;;;12.65;36.84
18988;BME280;5494;51.796;10.952;2023-04-26T12:16:28;99059.50;;;12.86;35.64
18988;BME280;5494;51.796;10.952;2023-04-26T12:18:57;99063.94;;;12.70;36.09
18988;BME280;5494;51.796;10.952;2023-04-26T12:21:25;99056.88;;;12.72;35.96
18988;BME280;5494;51.796;10.952;2023-04-26T12:23:56;99063.03;;;12.55;36.34
18988;BME280;5494;51.796;10.952;2023-04-26T12:26:41;99067.69;;;12.50;36.55
18988;BME280;5494;51.796;10.952;2023-04-26T12:29:10;99072.75;;;12.37;37.24
18988;BME280;5494;51.796;10.952;2023-04-26T12:31:38;99073.97;;;12.16;37.78
18988;BME280;5494;51.796;10.952;2023-04-26T12:34:07;99075.19;;;11.77;38.57
18988;BME280;5494;51.796;10.952;2023-04-26T12:36:35;99076.09;;;11.61;39.30
18988;BME280;5494;51.796;10.952;2023-04-26T12:39:03;99078.41;;;11.50;39.45
18988;BME280;5494;51.796;10.952;2023-04-26T12:41:31;99073.19;;;11.34;39.46
18988;BME280;5494;51.796;10.952;2023-04-26T12:43:59;99079.53;;;11.28;40.01
18988;BME280;5494;51.796;10.952;2023-04-26T12:46:28;99080.81;;;11.37;40.14
18988;BME280;5494;51.796;10.952;2023-04-26T12:48:56;99065.03;;;11.40;39.64
18988;BME280;5494;51.796;10.952;2023-04-26T12:51:26;99070.97;;;11.59;38.77
18988;BME280;5494;51.796;10.952;2023-04-26T12:53:54;99071.34;;;11.52;37.82
18988;BME280;5494;51.796;10.952;2023-04-26T12:56:23;99057.50;;;11.51;36.78
18988;BME280;5494;51.796;10.952;2023-04-26T12:58:51;99072.03;;;11.55;37.31
18988;BME280;5494;51.796;10.952;2023-04-26T13:01:19;99065.22;;;11.53;37.38
18988;BME280;5494;51.796;10.952;2023-04-26T13:03:47;99069.22;;;11.42;38.06
18988;BME280;5494;51.796;10.952;2023-04-26T13:06:16;99063.19;;;11.42;38.08
18988;BME280;5494;51.796;10.952;2023-04-26T13:08:46;99065.84;;;11.25;38.79
18988;BME280;5494;51.796;10.952;2023-04-26T13:11:16;99066.38;;;11.31;38.75
18988;BME280;5494;51.796;10.952;2023-04-26T13:13:45;99075.56;;;11.21;39.41
18988;BME280;5494;51.796;10.952;2023-04-26T13:16:13;99076.88;;;11.13;39.45
18988;BME280;5494;51.796;10.952;2023-04-26T13:18:42;99079.34;;;10.98;39.50
18988;BME280;5494;51.796;10.952;2023-04-26T13:21:10;99086.22;;;10.99;39.89